TOM8AE EGKK-LGKR
Flight info
| Callsign | TOM8AE |
|---|---|
| Flight time | N/A |
| Altitude | 37000 |
| Route | MIMFO Y312 DVR UL9 KONAN DCT KOK DCT KOMOB DCT EDISA DCT PICWI DCT UTABA DCT BEMKI/N0446F390 DCT ELMEM DCT DIRAB DCT VESAL DCT VAKSU DCT RODON DCT LIMJA N732 PITAS |
| Aircraft | B38M/M-SDE1FGHILORVWXY/HB1 |
Departure
| Time | N/A |
|---|---|
| Airport | London Gatwick Airport (EGKK) |
Arrival
| Time | 2026-05-03 20:30 |
|---|---|
| Airport | Corfu Ioannis Kapodistrias International Airport (LGKR) |
| Time | Latitude | Longitude | Altitude | Speed | Heading |
|---|---|---|---|---|---|
| 2026-05-03 20:15 | 40.97221 | 19.33638 | 26682 ft | 516 kts | 158° |
| 2026-05-03 20:15 | 40.93859 | 19.35259 | 25910 ft | 513 kts | 158° |
| 2026-05-03 20:15 | 40.90516 | 19.36869 | 25191 ft | 508 kts | 158° |
| 2026-05-03 20:15 | 40.87197 | 19.38466 | 24499 ft | 504 kts | 158° |
| 2026-05-03 20:16 | 40.83912 | 19.40045 | 23845 ft | 499 kts | 158° |
| 2026-05-03 20:16 | 40.80697 | 19.41588 | 23135 ft | 494 kts | 158° |
| 2026-05-03 20:16 | 40.77477 | 19.43133 | 22443 ft | 489 kts | 158° |
| 2026-05-03 20:16 | 40.74290 | 19.44660 | 21764 ft | 483 kts | 158° |
| 2026-05-03 20:17 | 40.71137 | 19.46168 | 21130 ft | 479 kts | 158° |
| 2026-05-03 20:17 | 40.68019 | 19.47659 | 20484 ft | 474 kts | 158° |
| 2026-05-03 20:17 | 40.64958 | 19.49122 | 19845 ft | 471 kts | 158° |
| 2026-05-03 20:17 | 40.61895 | 19.50584 | 19272 ft | 465 kts | 158° |
| 2026-05-03 20:18 | 40.58856 | 19.52034 | 18707 ft | 461 kts | 158° |
| 2026-05-03 20:18 | 40.55856 | 19.53460 | 18159 ft | 456 kts | 158° |
| 2026-05-03 20:18 | 40.52887 | 19.54870 | 17594 ft | 450 kts | 158° |
| 2026-05-03 20:18 | 40.49953 | 19.56263 | 17043 ft | 445 kts | 158° |
| 2026-05-03 20:19 | 40.47057 | 19.57636 | 16550 ft | 439 kts | 158° |
| 2026-05-03 20:19 | 40.44205 | 19.58988 | 16055 ft | 433 kts | 158° |
| 2026-05-03 20:19 | 40.41415 | 19.60309 | 15602 ft | 428 kts | 158° |
| 2026-05-03 20:19 | 40.38629 | 19.61626 | 15202 ft | 421 kts | 158° |
| 2026-05-03 20:20 | 40.35897 | 19.62918 | 14898 ft | 412 kts | 158° |
| 2026-05-03 20:20 | 40.33219 | 19.64183 | 14646 ft | 403 kts | 158° |
| 2026-05-03 20:20 | 40.30608 | 19.65415 | 14420 ft | 394 kts | 158° |
| 2026-05-03 20:20 | 40.28064 | 19.66614 | 13902 ft | 394 kts | 158° |
| 2026-05-03 20:21 | 40.25454 | 19.67843 | 12963 ft | 404 kts | 158° |
| 2026-05-03 20:21 | 40.22771 | 19.69105 | 12117 ft | 411 kts | 158° |
| 2026-05-03 20:21 | 40.20098 | 19.70362 | 11647 ft | 406 kts | 158° |
| 2026-05-03 20:21 | 40.17449 | 19.71607 | 11197 ft | 402 kts | 158° |
| 2026-05-03 20:22 | 40.14825 | 19.72840 | 10663 ft | 398 kts | 158° |
| 2026-05-03 20:22 | 40.12231 | 19.74056 | 10179 ft | 395 kts | 158° |
| 2026-05-03 20:22 | 40.09638 | 19.75271 | 9603 ft | 392 kts | 159° |
| 2026-05-03 20:22 | 40.07114 | 19.76454 | 9104 ft | 387 kts | 159° |
| 2026-05-03 20:23 | 40.04593 | 19.77633 | 8611 ft | 382 kts | 159° |
| 2026-05-03 20:23 | 40.02103 | 19.78797 | 8178 ft | 376 kts | 159° |
| 2026-05-03 20:23 | 39.99651 | 19.79943 | 7696 ft | 372 kts | 159° |
| 2026-05-03 20:23 | 39.97229 | 19.81074 | 7257 ft | 367 kts | 160° |
| 2026-05-03 20:24 | 39.94843 | 19.82187 | 6811 ft | 361 kts | 160° |
| 2026-05-03 20:24 | 39.92519 | 19.83271 | 6359 ft | 353 kts | 160° |
| 2026-05-03 20:24 | 39.90234 | 19.84341 | 5912 ft | 343 kts | 159° |
| 2026-05-03 20:24 | 39.88145 | 19.85717 | 5410 ft | 329 kts | 151° |
| 2026-05-03 20:25 | 39.86166 | 19.87123 | 4832 ft | 319 kts | 152° |
| 2026-05-03 20:25 | 39.84235 | 19.88464 | 4225 ft | 311 kts | 152° |
| 2026-05-03 20:25 | 39.82335 | 19.89767 | 3565 ft | 305 kts | 152° |
| 2026-05-03 20:25 | 39.80453 | 19.90896 | 3359 ft | 286 kts | 165° |
| 2026-05-03 20:26 | 39.78594 | 19.91204 | 3317 ft | 263 kts | 175° |
| 2026-05-03 20:26 | 39.76841 | 19.91422 | 3294 ft | 241 kts | 174° |
| 2026-05-03 20:26 | 39.75249 | 19.91625 | 3299 ft | 216 kts | 175° |
| 2026-05-03 20:26 | 39.73857 | 19.91579 | 3258 ft | 184 kts | 185° |
| 2026-05-03 20:27 | 39.72650 | 19.91452 | 2930 ft | 166 kts | 185° |
| 2026-05-03 20:27 | 39.71534 | 19.91346 | 2517 ft | 154 kts | 184° |
| 2026-05-03 20:27 | 39.70499 | 19.91255 | 2202 ft | 147 kts | 184° |
| 2026-05-03 20:27 | 39.69486 | 19.91149 | 1875 ft | 144 kts | 185° |
| 2026-05-03 20:28 | 39.68496 | 19.91019 | 1694 ft | 143 kts | 185° |
| 2026-05-03 20:28 | 39.67509 | 19.90864 | 1494 ft | 142 kts | 185° |
| 2026-05-03 20:28 | 39.66536 | 19.90805 | 1204 ft | 141 kts | 181° |
| 2026-05-03 20:28 | 39.65556 | 19.90760 | 924 ft | 140 kts | 179° |
| 2026-05-03 20:29 | 39.64588 | 19.90750 | 726 ft | 139 kts | 179° |
| 2026-05-03 20:29 | 39.63621 | 19.90745 | 579 ft | 138 kts | 176° |
| 2026-05-03 20:29 | 39.62660 | 19.90786 | 411 ft | 138 kts | 174° |
| 2026-05-03 20:29 | 39.61694 | 19.90883 | 228 ft | 140 kts | 172° |
| 2026-05-03 20:30 | 39.60765 | 19.91065 | 31 ft | 131 kts | 167° |
| 2026-05-03 20:30 | 39.60006 | 19.91262 | 12 ft | 79 kts | 168° |
| 2026-05-03 20:30 | 39.59696 | 19.91342 | 11 ft | 23 kts | 169° |
| 2026-05-03 20:30 | 39.59533 | 19.91386 | 9 ft | 25 kts | 169° |
| 2026-05-03 20:31 | 39.59355 | 19.91430 | 8 ft | 27 kts | 169° |
| 2026-05-03 20:31 | 39.59237 | 19.91474 | 8 ft | 7 kts | 180° |
| 2026-05-03 20:31 | 39.59227 | 19.91459 | 8 ft | 1 kts | 268° |
| 2026-05-03 20:31 | 39.59231 | 19.91454 | 10 ft | 2 kts | 316° |
| 2026-05-03 20:32 | 39.59289 | 19.91438 | 10 ft | 15 kts | 349° |
| 2026-05-03 20:32 | 39.59423 | 19.91406 | 8 ft | 22 kts | 349° |
| 2026-05-03 20:32 | 39.59582 | 19.91368 | 9 ft | 24 kts | 350° |
| 2026-05-03 20:32 | 39.59754 | 19.91325 | 11 ft | 26 kts | 348° |
| 2026-05-03 20:33 | 39.59934 | 19.91278 | 14 ft | 28 kts | 348° |
| 2026-05-03 20:33 | 39.60135 | 19.91225 | 13 ft | 30 kts | 348° |
| 2026-05-03 20:33 | 39.60339 | 19.91175 | 12 ft | 23 kts | 350° |
| 2026-05-03 20:33 | 39.60470 | 19.91150 | 11 ft | 18 kts | 359° |
| 2026-05-03 20:34 | 39.60584 | 19.91194 | 11 ft | 13 kts | 22° |
| 2026-05-03 20:34 | 39.60630 | 19.91225 | 11 ft | 4 kts | 58° |
| 2026-05-03 20:34 | 39.60622 | 19.91254 | 11 ft | 4 kts | 142° |
| 2026-05-03 20:34 | 39.60590 | 19.91288 | 11 ft | 8 kts | 140° |
| 2026-05-03 20:35 | 39.60580 | 19.91314 | 11 ft | 2 kts | 76° |
| 2026-05-03 20:35 | 39.60585 | 19.91337 | 11 ft | 4 kts | 76° |
| 2026-05-03 20:35 | 39.60592 | 19.91376 | 11 ft | 0 kts | 77° |